sensor_id;sensor_type;location;lat;lon;timestamp;pressure;altitude;pressure_sealevel;temperature;humidity
21869;BME280;11099;41.564;23.296;2023-05-23T00:02:22;97358.53;;;18.93;77.35
21869;BME280;11099;41.564;23.296;2023-05-23T00:04:47;97301.31;;;18.54;75.92
21869;BME280;11099;41.564;23.296;2023-05-23T00:07:13;97304.56;;;18.66;75.63
21869;BME280;11099;41.564;23.296;2023-05-23T00:09:39;97362.97;;;19.38;74.76
21869;BME280;11099;41.564;23.296;2023-05-23T00:12:04;97358.25;;;19.32;75.54
21869;BME280;11099;41.564;23.296;2023-05-23T00:14:31;97366.50;;;19.42;74.79
21869;BME280;11099;41.564;23.296;2023-05-23T00:16:58;97291.00;;;18.86;73.81
21869;BME280;11099;41.564;23.296;2023-05-23T00:19:25;97349.88;;;18.80;75.58
21869;BME280;11099;41.564;23.296;2023-05-23T00:21:50;97257.00;;;18.02;76.87
21869;BME280;11099;41.564;23.296;2023-05-23T00:24:18;97351.56;;;18.92;76.85
21869;BME280;11099;41.564;23.296;2023-05-23T00:26:45;97339.06;;;18.31;80.16
21869;BME280;11099;41.564;23.296;2023-05-23T00:29:11;97344.31;;;18.24;81.11
21869;BME280;11099;41.564;23.296;2023-05-23T00:31:44;97328.03;;;18.16;83.09
21869;BME280;11099;41.564;23.296;2023-05-23T00:34:15;97347.56;;;18.33;83.79
21869;BME280;11099;41.564;23.296;2023-05-23T00:36:44;97331.81;;;18.61;82.09
21869;BME280;11099;41.564;23.296;2023-05-23T00:39:11;97363.13;;;18.92;79.65
21869;BME280;11099;41.564;23.296;2023-05-23T00:41:44;97351.47;;;18.85;77.73
21869;BME280;11099;41.564;23.296;2023-05-23T00:44:10;97354.13;;;18.58;76.74
21869;BME280;11099;41.564;23.296;2023-05-23T00:46:35;97289.56;;;18.16;78.00
21869;BME280;11099;41.564;23.296;2023-05-23T00:49:02;97306.97;;;18.22;79.35
21869;BME280;11099;41.564;23.296;2023-05-23T00:51:28;97234.97;;;17.96;78.94
21869;BME280;11099;41.564;23.296;2023-05-23T00:53:54;97308.59;;;17.61;83.83
21869;BME280;11099;41.564;23.296;2023-05-23T00:56:20;97283.88;;;17.98;81.70
21869;BME280;11099;41.564;23.296;2023-05-23T00:58:45;97296.31;;;18.06;81.56
21869;BME280;11099;41.564;23.296;2023-05-23T01:01:12;97280.97;;;17.64;85.65
21869;BME280;11099;41.564;23.296;2023-05-23T01:03:39;97349.00;;;18.27;85.98
21869;BME280;11099;41.564;23.296;2023-05-23T01:06:04;97243.38;;;18.17;83.52
21869;BME280;11099;41.564;23.296;2023-05-23T01:08:30;97365.16;;;18.73;84.63
21869;BME280;11099;41.564;23.296;2023-05-23T01:11:00;97210.84;;;17.57;86.18
21869;BME280;11099;41.564;23.296;2023-05-23T01:13:40;97317.63;;;18.38;85.61
21869;BME280;11099;41.564;23.296;2023-05-23T01:16:17;97298.19;;;17.41;90.23
21869;BME280;11099;41.564;23.296;2023-05-23T01:21:29;97325.75;;;17.53;89.18
21869;BME280;11099;41.564;23.296;2023-05-23T01:26:37;97340.91;;;17.81;90.51
21869;BME280;11099;41.564;23.296;2023-05-23T01:29:21;97239.09;;;17.05;90.89
21869;BME280;11099;41.564;23.296;2023-05-23T01:31:52;97315.69;;;17.50;91.58
21869;BME280;11099;41.564;23.296;2023-05-23T01:34:17;97331.03;;;17.30;93.15
21869;BME280;11099;41.564;23.296;2023-05-23T01:36:43;97342.38;;;17.20;94.36
21869;BME280;11099;41.564;23.296;2023-05-23T01:39:09;97267.78;;;16.98;93.54
21869;BME280;11099;41.564;23.296;2023-05-23T01:41:35;97324.03;;;17.64;91.67
21869;BME280;11099;41.564;23.296;2023-05-23T01:44:01;97286.09;;;16.92;95.65
21869;BME280;11099;41.564;23.296;2023-05-23T01:46:28;97245.25;;;16.51;96.23
21869;BME280;11099;41.564;23.296;2023-05-23T01:48:54;97306.91;;;17.15;94.61
21869;BME280;11099;41.564;23.296;2023-05-23T01:51:21;97256.66;;;16.99;93.95
21869;BME280;11099;41.564;23.296;2023-05-23T01:53:49;97315.59;;;17.47;92.88
21869;BME280;11099;41.564;23.296;2023-05-23T01:56:15;97248.88;;;16.94;93.42
21869;BME280;11099;41.564;23.296;2023-05-23T01:58:41;97329.38;;;17.42;92.69
21869;BME280;11099;41.564;23.296;2023-05-23T02:01:08;97300.94;;;17.83;90.26
21869;BME280;11099;41.564;23.296;2023-05-23T02:03:34;97304.66;;;17.75;89.75
21869;BME280;11099;41.564;23.296;2023-05-23T02:05:59;97348.75;;;18.12;89.41
21869;BME280;11099;41.564;23.296;2023-05-23T02:08:25;97281.22;;;17.79;88.61
21869;BME280;11099;41.564;23.296;2023-05-23T02:10:50;97337.31;;;18.42;86.88
21869;BME280;11099;41.564;23.296;2023-05-23T02:13:16;97333.44;;;18.66;85.58
21869;BME280;11099;41.564;23.296;2023-05-23T02:15:41;97313.16;;;18.49;84.48
21869;BME280;11099;41.564;23.296;2023-05-23T02:18:07;97206.63;;;18.02;82.41
21869;BME280;11099;41.564;23.296;2023-05-23T02:20:32;97313.59;;;18.78;80.81
21869;BME280;11099;41.564;23.296;2023-05-23T02:22:58;97223.44;;;17.73;81.50
21869;BME280;11099;41.564;23.296;2023-05-23T02:25:23;97337.84;;;17.24;86.51
21869;BME280;11099;41.564;23.296;2023-05-23T02:27:49;97318.00;;;16.94;86.53
21869;BME280;11099;41.564;23.296;2023-05-23T02:30:14;97301.50;;;16.76;87.32
21869;BME280;11099;41.564;23.296;2023-05-23T02:32:40;97299.13;;;16.58;88.32
21869;BME280;11099;41.564;23.296;2023-05-23T02:35:07;97138.66;;;15.69;87.56
21869;BME280;11099;41.564;23.296;2023-05-23T02:37:51;97325.13;;;16.86;87.76
21869;BME280;11099;41.564;23.296;2023-05-23T02:40:17;97230.59;;;16.14;88.58
21869;BME280;11099;41.564;23.296;2023-05-23T02:42:42;97151.22;;;15.65;88.45
21869;BME280;11099;41.564;23.296;2023-05-23T02:45:08;97262.53;;;15.87;90.91
21869;BME280;11099;41.564;23.296;2023-05-23T02:47:34;97252.94;;;16.02;90.12
21869;BME280;11099;41.564;23.296;2023-05-23T02:49:59;97130.78;;;15.29;90.18
21869;BME280;11099;41.564;23.296;2023-05-23T02:52:25;97202.81;;;15.90;88.67
21869;BME280;11099;41.564;23.296;2023-05-23T02:54:50;97109.91;;;15.38;88.35
21869;BME280;11099;41.564;23.296;2023-05-23T02:57:16;97336.91;;;17.36;86.92
21869;BME280;11099;41.564;23.296;2023-05-23T02:59:42;97273.69;;;16.37;87.97
21869;BME280;11099;41.564;23.296;2023-05-23T03:02:07;97334.59;;;16.80;88.14
21869;BME280;11099;41.564;23.296;2023-05-23T03:04:35;97359.00;;;16.71;89.06
21869;BME280;11099;41.564;23.296;2023-05-23T03:07:02;97285.41;;;16.13;89.55
21869;BME280;11099;41.564;23.296;2023-05-23T03:09:28;97320.19;;;16.88;86.44
21869;BME280;11099;41.564;23.296;2023-05-23T03:11:53;97224.34;;;16.10;86.94
21869;BME280;11099;41.564;23.296;2023-05-23T03:14:19;97193.56;;;15.72;88.25
21869;BME280;11099;41.564;23.296;2023-05-23T03:16:44;97365.72;;;16.81;87.27
21869;BME280;11099;41.564;23.296;2023-05-23T03:19:10;97361.19;;;16.69;87.21
21869;BME280;11099;41.564;23.296;2023-05-23T03:21:35;97332.25;;;16.63;87.52
21869;BME280;11099;41.564;23.296;2023-05-23T03:24:00;97332.53;;;16.57;87.78
21869;BME280;11099;41.564;23.296;2023-05-23T03:26:26;97342.38;;;16.85;86.51
21869;BME280;11099;41.564;23.296;2023-05-23T03:28:51;97359.75;;;16.72;86.84
21869;BME280;11099;41.564;23.296;2023-05-23T03:31:17;97323.28;;;16.71;85.67
21869;BME280;11099;41.564;23.296;2023-05-23T03:33:42;97217.94;;;15.98;84.79
21869;BME280;11099;41.564;23.296;2023-05-23T03:36:08;97248.09;;;16.07;85.10
21869;BME280;11099;41.564;23.296;2023-05-23T03:38:33;97292.16;;;16.38;85.62
21869;BME280;11099;41.564;23.296;2023-05-23T03:40:59;97264.88;;;16.20;86.43
21869;BME280;11099;41.564;23.296;2023-05-23T03:43:25;97224.06;;;16.30;84.02
21869;BME280;11099;41.564;23.296;2023-05-23T03:45:50;97326.06;;;17.52;81.13
21869;BME280;11099;41.564;23.296;2023-05-23T03:48:16;97300.59;;;17.65;79.47
21869;BME280;11099;41.564;23.296;2023-05-23T03:50:42;97195.56;;;17.19;78.26
21869;BME280;11099;41.564;23.296;2023-05-23T03:53:07;97161.44;;;16.26;80.35
21869;BME280;11099;41.564;23.296;2023-05-23T03:55:33;97286.75;;;17.67;78.00
21869;BME280;11099;41.564;23.296;2023-05-23T03:57:59;97309.34;;;17.62;79.00
21869;BME280;11099;41.564;23.296;2023-05-23T04:00:26;97256.47;;;17.50;78.65
21869;BME280;11099;41.564;23.296;2023-05-23T04:02:52;97290.63;;;18.11;75.70
21869;BME280;11099;41.564;23.296;2023-05-23T04:05:17;97347.34;;;18.94;72.77
21869;BME280;11099;41.564;23.296;2023-05-23T04:07:44;97315.13;;;19.05;73.73
21869;BME280;11099;41.564;23.296;2023-05-23T04:10:10;97333.53;;;19.93;69.68
21869;BME280;11099;41.564;23.296;2023-05-23T04:12:36;97371.56;;;19.78;70.29
21869;BME280;11099;41.564;23.296;2023-05-23T04:15:02;97321.88;;;19.18;70.80
21869;BME280;11099;41.564;23.296;2023-05-23T04:17:29;97396.44;;;19.94;68.85
21869;BME280;11099;41.564;23.296;2023-05-23T04:19:56;97284.03;;;19.45;68.04
21869;BME280;11099;41.564;23.296;2023-05-23T04:22:22;97371.09;;;20.06;68.10
21869;BME280;11099;41.564;23.296;2023-05-23T04:24:47;97398.00;;;20.36;66.62
21869;BME280;11099;41.564;23.296;2023-05-23T04:27:13;97388.91;;;20.51;65.71
21869;BME280;11099;41.564;23.296;2023-05-23T04:29:38;97318.25;;;20.60;64.06
21869;BME280;11099;41.564;23.296;2023-05-23T04:32:05;97382.25;;;20.45;66.39
21869;BME280;11099;41.564;23.296;2023-05-23T04:34:31;97327.31;;;20.34;65.84
21869;BME280;11099;41.564;23.296;2023-05-23T04:37:00;97188.81;;;20.51;62.84
21869;BME280;11099;41.564;23.296;2023-05-23T04:39:27;97364.81;;;20.87;63.15
21869;BME280;11099;41.564;23.296;2023-05-23T04:41:54;97315.75;;;21.82;60.22
21869;BME280;11099;41.564;23.296;2023-05-23T04:44:21;97319.81;;;23.51;54.18
21869;BME280;11099;41.564;23.296;2023-05-23T04:46:47;97376.66;;;22.42;58.50
21869;BME280;11099;41.564;23.296;2023-05-23T04:49:15;97217.13;;;20.75;60.96
21869;BME280;11099;41.564;23.296;2023-05-23T04:51:41;97270.31;;;20.53;62.16
21869;BME280;11099;41.564;23.296;2023-05-23T04:54:06;97359.78;;;21.51;62.94
21869;BME280;11099;41.564;23.296;2023-05-23T04:56:32;97282.47;;;21.93;58.13
21869;BME280;11099;41.564;23.296;2023-05-23T04:58:58;97272.78;;;22.02;57.15
21869;BME280;11099;41.564;23.296;2023-05-23T05:01:23;97292.00;;;21.37;60.51
21869;BME280;11099;41.564;23.296;2023-05-23T05:03:49;97356.91;;;22.59;56.74
21869;BME280;11099;41.564;23.296;2023-05-23T05:06:15;97375.47;;;22.82;57.43
21869;BME280;11099;41.564;23.296;2023-05-23T05:08:41;97388.28;;;22.60;59.01
21869;BME280;11099;41.564;23.296;2023-05-23T05:11:08;97369.50;;;23.62;55.27
21869;BME280;11099;41.564;23.296;2023-05-23T05:13:33;97332.34;;;23.27;54.77
21869;BME280;11099;41.564;23.296;2023-05-23T05:15:59;97373.31;;;23.76;53.94
21869;BME280;11099;41.564;23.296;2023-05-23T05:18:25;97374.06;;;23.80;52.15
21869;BME280;11099;41.564;23.296;2023-05-23T05:20:51;97335.81;;;24.12;52.62
21869;BME280;11099;41.564;23.296;2023-05-23T05:23:17;97296.41;;;22.73;54.18
21869;BME280;11099;41.564;23.296;2023-05-23T05:25:42;97292.19;;;22.54;56.14
21869;BME280;11099;41.564;23.296;2023-05-23T05:28:08;97273.97;;;21.98;56.55
21869;BME280;11099;41.564;23.296;2023-05-23T05:30:34;97310.75;;;22.77;56.96
21869;BME280;11099;41.564;23.296;2023-05-23T05:33:03;97336.75;;;22.53;55.10
21869;BME280;11099;41.564;23.296;2023-05-23T05:35:33;97274.63;;;23.02;53.44
21869;BME280;11099;41.564;23.296;2023-05-23T05:37:59;97377.00;;;23.19;54.18
21869;BME280;11099;41.564;23.296;2023-05-23T05:40:25;97371.38;;;23.73;52.04
21869;BME280;11099;41.564;23.296;2023-05-23T05:42:51;97302.03;;;24.06;49.86
21869;BME280;11099;41.564;23.296;2023-05-23T05:45:16;97301.78;;;23.89;51.16
21869;BME280;11099;41.564;23.296;2023-05-23T05:47:43;97306.00;;;23.24;51.86
21869;BME280;11099;41.564;23.296;2023-05-23T05:50:08;97322.97;;;23.39;53.11
21869;BME280;11099;41.564;23.296;2023-05-23T05:52:35;97308.56;;;23.63;52.01
21869;BME280;11099;41.564;23.296;2023-05-23T05:55:08;97310.28;;;23.14;53.29
21869;BME280;11099;41.564;23.296;2023-05-23T05:57:40;97348.72;;;22.95;55.76
21869;BME280;11099;41.564;23.296;2023-05-23T06:00:10;97300.59;;;23.13;53.95
21869;BME280;11099;41.564;23.296;2023-05-23T06:02:40;97375.88;;;22.77;57.22
21869;BME280;11099;41.564;23.296;2023-05-23T06:05:12;97366.97;;;22.87;58.32
21869;BME280;11099;41.564;23.296;2023-05-23T06:07:38;97343.72;;;22.15;60.70
21869;BME280;11099;41.564;23.296;2023-05-23T06:10:05;97318.06;;;21.77;61.27
21869;BME280;11099;41.564;23.296;2023-05-23T06:12:30;97375.88;;;22.74;59.61
21869;BME280;11099;41.564;23.296;2023-05-23T06:14:56;97306.06;;;22.96;58.36
21869;BME280;11099;41.564;23.296;2023-05-23T06:17:21;97334.28;;;23.30;57.05
21869;BME280;11099;41.564;23.296;2023-05-23T06:19:47;97335.19;;;22.17;60.10
21869;BME280;11099;41.564;23.296;2023-05-23T06:22:13;97251.88;;;22.64;55.70
21869;BME280;11099;41.564;23.296;2023-05-23T06:24:38;97365.41;;;22.33;61.60
21869;BME280;11099;41.564;23.296;2023-05-23T06:27:04;97338.09;;;23.44;56.76
21869;BME280;11099;41.564;23.296;2023-05-23T06:29:29;97265.06;;;22.29;59.72
21869;BME280;11099;41.564;23.296;2023-05-23T06:31:55;97287.75;;;23.25;56.99
21869;BME280;11099;41.564;23.296;2023-05-23T06:34:21;97355.88;;;23.66;57.13
21869;BME280;11099;41.564;23.296;2023-05-23T06:36:47;97339.03;;;23.96;54.83
21869;BME280;11099;41.564;23.296;2023-05-23T06:39:13;97356.94;;;24.49;54.95
21869;BME280;11099;41.564;23.296;2023-05-23T06:41:38;97325.38;;;23.26;59.05
21869;BME280;11099;41.564;23.296;2023-05-23T06:44:04;97313.31;;;23.34;55.85
21869;BME280;11099;41.564;23.296;2023-05-23T06:46:30;97252.50;;;23.10;54.43
21869;BME280;11099;41.564;23.296;2023-05-23T06:48:56;97305.94;;;24.08;53.17
21869;BME280;11099;41.564;23.296;2023-05-23T06:51:21;97258.41;;;23.75;55.67
21869;BME280;11099;41.564;23.296;2023-05-23T06:53:47;97347.13;;;23.19;59.68
21869;BME280;11099;41.564;23.296;2023-05-23T06:56:12;97316.16;;;22.99;57.44
21869;BME280;11099;41.564;23.296;2023-05-23T06:58:38;97303.38;;;22.81;58.05
21869;BME280;11099;41.564;23.296;2023-05-23T07:01:03;97328.13;;;23.16;58.74
21869;BME280;11099;41.564;23.296;2023-05-23T07:03:29;97286.44;;;23.51;56.73
21869;BME280;11099;41.564;23.296;2023-05-23T07:05:55;97291.88;;;23.51;57.86
21869;BME280;11099;41.564;23.296;2023-05-23T07:08:20;97333.69;;;23.82;57.07
21869;BME280;11099;41.564;23.296;2023-05-23T07:10:46;97274.34;;;22.57;59.47
21869;BME280;11099;41.564;23.296;2023-05-23T07:13:11;97287.84;;;22.78;59.43
21869;BME280;11099;41.564;23.296;2023-05-23T07:15:37;97337.88;;;22.88;62.47
21869;BME280;11099;41.564;23.296;2023-05-23T07:18:02;97326.97;;;23.13;61.12
21869;BME280;11099;41.564;23.296;2023-05-23T07:20:28;97280.28;;;23.39;59.48
21869;BME280;11099;41.564;23.296;2023-05-23T07:22:54;97302.19;;;22.82;61.24
21869;BME280;11099;41.564;23.296;2023-05-23T07:25:19;97295.06;;;23.38;59.63
21869;BME280;11099;41.564;23.296;2023-05-23T07:27:47;97248.28;;;22.84;61.29
21869;BME280;11099;41.564;23.296;2023-05-23T07:30:13;97297.84;;;23.17;62.18
21869;BME280;11099;41.564;23.296;2023-05-23T07:32:41;97196.97;;;23.22;61.12
21869;BME280;11099;41.564;23.296;2023-05-23T07:35:07;97277.72;;;23.84;57.72
21869;BME280;11099;41.564;23.296;2023-05-23T07:37:32;97291.56;;;24.08;55.37
21869;BME280;11099;41.564;23.296;2023-05-23T07:39:58;97264.59;;;23.76;55.98
21869;BME280;11099;41.564;23.296;2023-05-23T07:42:23;97304.47;;;23.97;56.48
21869;BME280;11099;41.564;23.296;2023-05-23T07:44:49;97262.34;;;24.15;55.70
21869;BME280;11099;41.564;23.296;2023-05-23T07:47:14;97198.78;;;23.43;57.01
21869;BME280;11099;41.564;23.296;2023-05-23T07:49:40;97262.44;;;23.38;57.00
21869;BME280;11099;41.564;23.296;2023-05-23T07:52:05;97218.22;;;23.38;56.28
21869;BME280;11099;41.564;23.296;2023-05-23T07:54:31;97207.19;;;24.15;53.05
21869;BME280;11099;41.564;23.296;2023-05-23T07:56:56;97173.00;;;24.17;51.11
21869;BME280;11099;41.564;23.296;2023-05-23T07:59:22;97271.91;;;24.79;51.48
21869;BME280;11099;41.564;23.296;2023-05-23T08:01:47;97220.00;;;24.18;50.97
21869;BME280;11099;41.564;23.296;2023-05-23T08:04:16;97263.53;;;24.18;49.90
21869;BME280;11099;41.564;23.296;2023-05-23T08:06:41;97192.47;;;23.57;52.67
21869;BME280;11099;41.564;23.296;2023-05-23T08:09:07;97309.56;;;23.91;54.48
21869;BME280;11099;41.564;23.296;2023-05-23T08:11:32;97253.75;;;24.65;49.13
21869;BME280;11099;41.564;23.296;2023-05-23T08:13:58;97183.88;;;24.55;48.54
21869;BME280;11099;41.564;23.296;2023-05-23T08:16:24;97261.28;;;24.88;45.88
21869;BME280;11099;41.564;23.296;2023-05-23T08:18:52;97300.53;;;24.53;46.71
21869;BME280;11099;41.564;23.296;2023-05-23T08:21:17;97220.41;;;24.58;46.39
21869;BME280;11099;41.564;23.296;2023-05-23T08:23:43;97302.06;;;24.95;46.78
21869;BME280;11099;41.564;23.296;2023-05-23T08:26:08;97197.50;;;23.62;46.51
21869;BME280;11099;41.564;23.296;2023-05-23T08:28:33;97241.75;;;23.66;49.50
21869;BME280;11099;41.564;23.296;2023-05-23T08:30:59;97219.78;;;23.98;49.34
21869;BME280;11099;41.564;23.296;2023-05-23T08:33:25;97234.97;;;24.40;47.55
21869;BME280;11099;41.564;23.296;2023-05-23T08:35:51;97242.06;;;25.06;46.74
21869;BME280;11099;41.564;23.296;2023-05-23T08:38:16;97191.53;;;24.26;46.99
21869;BME280;11099;41.564;23.296;2023-05-23T08:40:49;97213.00;;;24.17;48.33
21869;BME280;11099;41.564;23.296;2023-05-23T08:43:18;97285.72;;;24.58;48.62
21869;BME280;11099;41.564;23.296;2023-05-23T08:45:44;97181.19;;;24.14;47.17
21869;BME280;11099;41.564;23.296;2023-05-23T08:48:12;97269.31;;;24.65;46.65
21869;BME280;11099;41.564;23.296;2023-05-23T08:50:40;97244.16;;;24.54;47.74
21869;BME280;11099;41.564;23.296;2023-05-23T08:53:08;97279.31;;;25.13;46.99
21869;BME280;11099;41.564;23.296;2023-05-23T08:55:34;97256.31;;;25.17;46.81
21869;BME280;11099;41.564;23.296;2023-05-23T08:58:02;97223.69;;;25.10;45.96
21869;BME280;11099;41.564;23.296;2023-05-23T09:00:28;97144.81;;;24.38;46.18
21869;BME280;11099;41.564;23.296;2023-05-23T09:02:54;97267.25;;;25.14;45.50
21869;BME280;11099;41.564;23.296;2023-05-23T09:05:21;97271.06;;;25.20;45.93
21869;BME280;11099;41.564;23.296;2023-05-23T09:07:47;97268.41;;;24.79;46.67
21869;BME280;11099;41.564;23.296;2023-05-23T09:10:14;97250.44;;;24.51;46.88
21869;BME280;11099;41.564;23.296;2023-05-23T09:12:44;97207.53;;;24.62;46.38
21869;BME280;11099;41.564;23.296;2023-05-23T09:15:10;97191.28;;;24.13;46.05
21869;BME280;11099;41.564;23.296;2023-05-23T09:17:36;97236.97;;;25.08;44.87
21869;BME280;11099;41.564;23.296;2023-05-23T09:20:11;97263.69;;;25.47;43.61
21869;BME280;11099;41.564;23.296;2023-05-23T09:22:38;97216.59;;;25.47;43.40
21869;BME280;11099;41.564;23.296;2023-05-23T09:25:04;97151.63;;;25.45;42.65
21869;BME280;11099;41.564;23.296;2023-05-23T09:27:30;97237.63;;;25.73;42.25
21869;BME280;11099;41.564;23.296;2023-05-23T09:29:55;97219.75;;;25.45;42.80
21869;BME280;11099;41.564;23.296;2023-05-23T09:32:21;97192.03;;;25.51;42.38
21869;BME280;11099;41.564;23.296;2023-05-23T09:34:57;97250.97;;;25.68;41.48
21869;BME280;11099;41.564;23.296;2023-05-23T09:37:38;97247.19;;;26.12;40.82
21869;BME280;11099;41.564;23.296;2023-05-23T09:40:10;97219.81;;;25.65;40.97
21869;BME280;11099;41.564;23.296;2023-05-23T09:42:47;97227.63;;;25.94;40.08
21869;BME280;11099;41.564;23.296;2023-05-23T09:45:13;97245.50;;;25.95;40.40
21869;BME280;11099;41.564;23.296;2023-05-23T09:47:48;97247.66;;;25.53;41.42
21869;BME280;11099;41.564;23.296;2023-05-23T09:50:15;97210.41;;;25.70;40.43
21869;BME280;11099;41.564;23.296;2023-05-23T09:52:41;97214.41;;;26.16;40.20
21869;BME280;11099;41.564;23.296;2023-05-23T09:55:07;97215.50;;;26.18;41.01
21869;BME280;11099;41.564;23.296;2023-05-23T09:57:39;97245.16;;;26.83;40.74
21869;BME280;11099;41.564;23.296;2023-05-23T10:00:06;97198.13;;;26.32;40.17
21869;BME280;11099;41.564;23.296;2023-05-23T10:08:11;97212.78;;;26.42;38.88
21869;BME280;11099;41.564;23.296;2023-05-23T10:13:24;97205.84;;;26.14;39.58
21869;BME280;11099;41.564;23.296;2023-05-23T10:16:05;97228.19;;;26.28;40.12
21869;BME280;11099;41.564;23.296;2023-05-23T10:18:42;97207.50;;;26.08;39.45
21869;BME280;11099;41.564;23.296;2023-05-23T10:21:11;97170.47;;;26.10;40.74
21869;BME280;11099;41.564;23.296;2023-05-23T10:23:41;97157.09;;;25.92;38.52
21869;BME280;11099;41.564;23.296;2023-05-23T10:26:06;97108.59;;;26.04;40.16
21869;BME280;11099;41.564;23.296;2023-05-23T10:28:32;97230.59;;;26.90;38.30
21869;BME280;11099;41.564;23.296;2023-05-23T10:30:58;97218.97;;;26.86;39.14
21869;BME280;11099;41.564;23.296;2023-05-23T10:33:26;97168.22;;;26.25;37.35
21869;BME280;11099;41.564;23.296;2023-05-23T10:35:54;97215.28;;;26.76;38.23
21869;BME280;11099;41.564;23.296;2023-05-23T10:41:09;97125.75;;;25.30;40.01
21869;BME280;11099;41.564;23.296;2023-05-23T10:43:54;97206.50;;;26.45;40.35
21869;BME280;11099;41.564;23.296;2023-05-23T10:46:52;97179.78;;;26.76;39.78
21869;BME280;11099;41.564;23.296;2023-05-23T10:49:18;97118.72;;;26.46;39.13
21869;BME280;11099;41.564;23.296;2023-05-23T10:51:48;97197.75;;;26.73;39.99
21869;BME280;11099;41.564;23.296;2023-05-23T10:54:17;97201.47;;;26.63;39.23
21869;BME280;11099;41.564;23.296;2023-05-23T10:56:43;97176.75;;;26.70;38.90
21869;BME280;11099;41.564;23.296;2023-05-23T10:59:19;97201.88;;;27.21;37.59
21869;BME280;11099;41.564;23.296;2023-05-23T11:01:45;97155.00;;;27.03;36.72
21869;BME280;11099;41.564;23.296;2023-05-23T11:04:11;97156.53;;;27.24;38.31
21869;BME280;11099;41.564;23.296;2023-05-23T11:06:43;97197.66;;;27.53;37.24
21869;BME280;11099;41.564;23.296;2023-05-23T11:11:52;97184.53;;;27.28;37.77
21869;BME280;11099;41.564;23.296;2023-05-23T11:14:31;97182.50;;;27.32;36.13
21869;BME280;11099;41.564;23.296;2023-05-23T11:17:29;97190.63;;;27.36;36.71
21869;BME280;11099;41.564;23.296;2023-05-23T11:20:04;97186.31;;;27.18;35.60
21869;BME280;11099;41.564;23.296;2023-05-23T11:22:32;97182.41;;;26.99;35.65
21869;BME280;11099;41.564;23.296;2023-05-23T11:24:59;97167.28;;;27.15;36.41
21869;BME280;11099;41.564;23.296;2023-05-23T11:30:00;97167.50;;;27.89;35.46
21869;BME280;11099;41.564;23.296;2023-05-23T11:32:28;97106.06;;;27.45;34.77
21869;BME280;11099;41.564;23.296;2023-05-23T11:34:54;97110.19;;;27.86;35.11
21869;BME280;11099;41.564;23.296;2023-05-23T11:37:20;97090.19;;;27.72;35.34
21869;BME280;11099;41.564;23.296;2023-05-23T11:39:48;97134.81;;;28.15;33.18
21869;BME280;11099;41.564;23.296;2023-05-23T11:42:13;97160.34;;;27.79;34.00
21869;BME280;11099;41.564;23.296;2023-05-23T11:44:39;97072.16;;;27.10;35.76
21869;BME280;11099;41.564;23.296;2023-05-23T11:47:05;97138.69;;;27.68;35.67
21869;BME280;11099;41.564;23.296;2023-05-23T11:49:34;97106.75;;;27.49;36.55
21869;BME280;11099;41.564;23.296;2023-05-23T11:52:02;97148.31;;;27.76;34.67
21869;BME280;11099;41.564;23.296;2023-05-23T11:54:28;97100.66;;;27.90;33.20
21869;BME280;11099;41.564;23.296;2023-05-23T11:56:54;97141.09;;;28.28;33.24
21869;BME280;11099;41.564;23.296;2023-05-23T11:59:21;97134.84;;;28.44;33.52
21869;BME280;11099;41.564;23.296;2023-05-23T12:01:47;97090.72;;;28.42;33.38
21869;BME280;11099;41.564;23.296;2023-05-23T12:04:12;97079.50;;;27.78;35.64
21869;BME280;11099;41.564;23.296;2023-05-23T12:06:39;97044.63;;;27.66;34.26
21869;BME280;11099;41.564;23.296;2023-05-23T12:09:06;97130.91;;;28.45;33.82
21869;BME280;11099;41.564;23.296;2023-05-23T12:11:33;97076.31;;;27.47;34.29
21869;BME280;11099;41.564;23.296;2023-05-23T12:13:59;97136.78;;;28.14;34.34
21869;BME280;11099;41.564;23.296;2023-05-23T12:16:30;97098.19;;;27.79;35.03
21869;BME280;11099;41.564;23.296;2023-05-23T12:18:56;97099.38;;;28.24;33.19
21869;BME280;11099;41.564;23.296;2023-05-23T12:21:25;97095.38;;;28.70;32.42
21869;BME280;11099;41.564;23.296;2023-05-23T12:23:51;97087.91;;;28.71;30.43
21869;BME280;11099;41.564;23.296;2023-05-23T12:26:16;97089.50;;;28.97;31.31
21869;BME280;11099;41.564;23.296;2023-05-23T12:28:43;97088.47;;;28.78;30.64
21869;BME280;11099;41.564;23.296;2023-05-23T12:31:17;97091.72;;;28.19;31.58
21869;BME280;11099;41.564;23.296;2023-05-23T12:33:44;97083.19;;;27.71;33.21
21869;BME280;11099;41.564;23.296;2023-05-23T12:36:11;97065.72;;;27.00;34.49
21869;BME280;11099;41.564;23.296;2023-05-23T12:38:36;97081.41;;;26.96;34.58
21869;BME280;11099;41.564;23.296;2023-05-23T12:41:17;97055.31;;;26.59;32.62
21869;BME280;11099;41.564;23.296;2023-05-23T12:43:53;97099.88;;;27.08;33.08
21869;BME280;11099;41.564;23.296;2023-05-23T12:46:23;97063.03;;;26.80;31.21
21869;BME280;11099;41.564;23.296;2023-05-23T12:48:49;97097.47;;;26.94;30.05
21869;BME280;11099;41.564;23.296;2023-05-23T12:51:15;97089.66;;;27.45;31.68
21869;BME280;11099;41.564;23.296;2023-05-23T12:53:41;97047.41;;;27.33;30.99
21869;BME280;11099;41.564;23.296;2023-05-23T12:56:06;97063.25;;;27.87;34.47
21869;BME280;11099;41.564;23.296;2023-05-23T12:58:32;97000.72;;;27.56;36.29
21869;BME280;11099;41.564;23.296;2023-05-23T13:00:58;97053.94;;;27.52;34.08
21869;BME280;11099;41.564;23.296;2023-05-23T13:03:24;97091.38;;;27.55;34.63
21869;BME280;11099;41.564;23.296;2023-05-23T13:05:50;97050.97;;;27.30;35.95
21869;BME280;11099;41.564;23.296;2023-05-23T13:08:16;97007.25;;;27.30;38.38
21869;BME280;11099;41.564;23.296;2023-05-23T13:10:43;97022.03;;;26.64;36.43
21869;BME280;11099;41.564;23.296;2023-05-23T13:13:08;97094.63;;;27.66;36.33